Time;durP1;ratioP1;P1;durP2;ratioP2;P2;SDS_P1;SDS_P2;PMS_P1;PMS_P2;Temp;Humidity;BMP_temperature;BMP_pressure;BME280_temperature;BME280_humidity;BME280_pressure;Samples;Min_cycle;Max_cycle;Signal;HPM_P1;HPM_P2
2024/04/01 00:00:14;;;;;;;;;;;20.50;46.80;;;;;;1589049;73;862;-68
2024/04/01 00:02:16;;;;;;;;;;;20.50;46.80;;;;;;1597476;73;653;-68
2024/04/01 00:04:18;;;;;;;;;;;20.50;46.90;;;;;;1600885;73;783;-68
2024/04/01 00:06:19;;;;;;;;;;;20.60;46.90;;;;;;1586410;73;1111;-68
2024/04/01 00:08:21;;;;;;;;;;;20.50;46.90;;;;;;1583252;73;1938;-68
2024/04/01 00:10:24;;;;;;;;;;;20.50;46.90;;;;;;1595689;73;720;-68
2024/04/01 00:12:26;;;;;;;;;;;20.60;46.90;;;;;;1594518;73;810;-69
2024/04/01 00:14:27;;;;;;;;;;;20.50;46.90;;;;;;1582045;73;731;-68
2024/04/01 00:16:29;;;;;;;;;;;20.50;46.90;;;;;;1590884;73;1166;-69
2024/04/01 00:18:31;;;;;;;;;;;20.50;46.90;;;;;;1588858;73;767;-67
2024/04/01 00:20:33;;;;;;;;;;;20.40;46.80;;;;;;1589180;73;701;-69
2024/04/01 00:22:35;;;;;;;;;;;20.50;47.00;;;;;;1585963;73;1567;-69
2024/04/01 00:24:37;;;;;;;;;;;20.40;46.90;;;;;;1587994;73;647;-70
2024/04/01 00:26:39;;;;;;;;;;;20.50;47.00;;;;;;1592475;73;1191;-68
2024/04/01 00:28:41;;;;;;;;;;;20.50;47.00;;;;;;1586973;73;1926;-68
2024/04/01 00:30:42;;;;;;;;;;;20.60;46.90;;;;;;1589894;73;731;-67
2024/04/01 00:32:44;;;;;;;;;;;20.50;47.00;;;;;;1591287;73;692;-69
2024/04/01 00:34:46;;;;;;;;;;;20.50;46.90;;;;;;1592855;73;721;-68
2024/04/01 00:36:48;;;;;;;;;;;20.50;46.90;;;;;;1588249;73;1372;-69
2024/04/01 00:38:50;;;;;;;;;;;20.50;47.00;;;;;;1595730;73;772;-69
2024/04/01 00:40:52;;;;;;;;;;;20.40;46.90;;;;;;1587348;73;608;-68
2024/04/01 00:42:55;;;;;;;;;;;20.40;46.90;;;;;;1588849;73;696;-66
2024/04/01 00:44:57;;;;;;;;;;;20.50;47.00;;;;;;1593043;73;1874;-68
2024/04/01 00:46:59;;;;;;;;;;;20.60;47.00;;;;;;1597169;73;1151;-66
2024/04/01 00:49:01;;;;;;;;;;;20.50;47.00;;;;;;1591348;73;1921;-68
2024/04/01 00:51:03;;;;;;;;;;;20.50;47.00;;;;;;1592924;73;1577;-69
2024/04/01 00:53:05;;;;;;;;;;;20.50;47.00;;;;;;1589037;73;819;-72
2024/04/01 00:55:07;;;;;;;;;;;20.50;47.00;;;;;;1588300;73;624;-68
2024/04/01 00:57:09;;;;;;;;;;;20.50;47.10;;;;;;1587588;73;1151;-67
2024/04/01 00:59:11;;;;;;;;;;;20.50;47.10;;;;;;1588816;73;616;-70
2024/04/01 01:01:13;;;;;;;;;;;20.50;47.10;;;;;;1596842;73;788;-67
2024/04/01 01:03:15;;;;;;;;;;;20.50;47.10;;;;;;1596838;73;729;-68
2024/04/01 01:05:16;;;;;;;;;;;20.40;47.10;;;;;;1593810;73;1530;-67
2024/04/01 01:07:18;;;;;;;;;;;20.50;47.10;;;;;;1586136;73;1140;-70
2024/04/01 01:09:20;;;;;;;;;;;20.50;47.10;;;;;;1592762;73;1913;-68
2024/04/01 01:11:22;;;;;;;;;;;20.40;47.00;;;;;;1595500;73;789;-68
2024/04/01 01:13:24;;;;;;;;;;;20.40;47.00;;;;;;1586144;73;720;-67
2024/04/01 01:15:27;;;;;;;;;;;20.40;47.00;;;;;;1597904;73;729;-68
2024/04/01 01:17:28;;;;;;;;;;;20.50;47.10;;;;;;1599535;73;1159;-68
2024/04/01 01:19:30;;;;;;;;;;;20.50;47.10;;;;;;1586667;73;1301;-68
2024/04/01 01:21:32;;;;;;;;;;;20.50;47.00;;;;;;1590817;73;739;-67
2024/04/01 01:23:34;;;;;;;;;;;20.50;47.00;;;;;;1585613;73;772;-68
2024/04/01 01:25:37;;;;;;;;;;;20.50;47.00;;;;;;1601114;73;713;-68
2024/04/01 01:27:40;;;;;;;;;;;20.50;47.00;;;;;;1594376;73;1154;-69
2024/04/01 01:29:42;;;;;;;;;;;20.40;46.90;;;;;;1598832;73;1955;-64
2024/04/01 01:31:44;;;;;;;;;;;20.50;47.00;;;;;;1592720;73;730;-68
2024/04/01 01:33:46;;;;;;;;;;;20.40;46.90;;;;;;1585401;73;1539;-69
2024/04/01 01:35:48;;;;;;;;;;;20.50;46.90;;;;;;1605710;73;1150;-67
2024/04/01 01:37:50;;;;;;;;;;;20.50;46.90;;;;;;1588246;73;791;-67
2024/04/01 01:39:52;;;;;;;;;;;20.50;46.90;;;;;;1592290;73;799;-65
2024/04/01 01:41:53;;;;;;;;;;;20.50;46.90;;;;;;1593775;73;785;-67
2024/04/01 01:43:55;;;;;;;;;;;20.50;46.90;;;;;;1590385;73;797;-68
2024/04/01 01:45:57;;;;;;;;;;;20.50;46.90;;;;;;1595746;73;1124;-68
2024/04/01 01:47:59;;;;;;;;;;;20.50;46.90;;;;;;1596274;73;1514;-68
2024/04/01 01:50:01;;;;;;;;;;;20.50;46.80;;;;;;1592088;73;1956;-69
2024/04/01 01:52:03;;;;;;;;;;;20.50;46.90;;;;;;1600118;73;738;-68
2024/04/01 01:54:05;;;;;;;;;;;20.50;46.80;;;;;;1596395;73;811;-68
2024/04/01 01:56:07;;;;;;;;;;;20.40;46.80;;;;;;1590721;73;1162;-68
2024/04/01 01:58:09;;;;;;;;;;;20.50;46.80;;;;;;1586459;73;736;-69
2024/04/01 02:00:16;;;;;;;;;;;20.50;46.80;;;;;;1595689;73;810;-68
2024/04/01 02:02:15;;;;;;;;;;;20.50;46.80;;;;;;1588961;73;1647;-68
2024/04/01 02:04:17;;;;;;;;;;;20.50;46.80;;;;;;1587143;73;801;-66
2024/04/01 02:06:19;;;;;;;;;;;20.50;46.80;;;;;;1585575;73;1152;-67
2024/04/01 02:08:21;;;;;;;;;;;20.50;46.80;;;;;;1587082;73;1936;-67
2024/04/01 02:10:23;;;;;;;;;;;20.50;46.80;;;;;;1598548;73;698;-68
2024/04/01 02:12:25;;;;;;;;;;;20.50;46.80;;;;;;1586600;73;758;-69
2024/04/01 02:14:27;;;;;;;;;;;20.50;46.80;;;;;;1590973;73;816;-67
2024/04/01 02:16:28;;;;;;;;;;;20.50;46.80;;;;;;1590105;73;1673;-69
2024/04/01 02:18:30;;;;;;;;;;;20.50;46.70;;;;;;1590606;73;773;-67
2024/04/01 02:20:34;;;;;;;;;;;20.50;46.70;;;;;;1587537;73;848;-67
2024/04/01 02:22:36;;;;;;;;;;;20.50;46.70;;;;;;1590788;73;662;-69
2024/04/01 02:24:38;;;;;;;;;;;20.50;46.70;;;;;;1591470;73;782;-67
2024/04/01 02:26:39;;;;;;;;;;;20.40;46.60;;;;;;1598237;73;1136;-67
2024/04/01 02:28:41;;;;;;;;;;;20.40;46.60;;;;;;1591327;73;1934;-68
2024/04/01 02:30:43;;;;;;;;;;;20.40;46.60;;;;;;1584873;73;1464;-66
2024/04/01 02:32:45;;;;;;;;;;;20.50;46.70;;;;;;1589729;73;951;-67
2024/04/01 02:34:47;;;;;;;;;;;20.50;46.70;;;;;;1586774;73;955;-66
2024/04/01 02:36:49;;;;;;;;;;;20.50;46.70;;;;;;1586094;73;1155;-67
2024/04/01 02:38:51;;;;;;;;;;;20.50;46.70;;;;;;1592790;73;770;-67
2024/04/01 02:40:52;;;;;;;;;;;20.40;46.60;;;;;;1594399;73;669;-68
2024/04/01 02:42:54;;;;;;;;;;;20.50;46.70;;;;;;1584881;73;1517;-66
2024/04/01 02:44:56;;;;;;;;;;;20.40;46.60;;;;;;1590717;73;795;-67
2024/04/01 02:46:58;;;;;;;;;;;20.50;46.70;;;;;;1598054;73;1115;-67
2024/04/01 02:49:00;;;;;;;;;;;20.60;46.70;;;;;;1585552;73;1919;-68
2024/04/01 02:51:02;;;;;;;;;;;20.50;46.60;;;;;;1595360;73;737;-68
2024/04/01 02:53:04;;;;;;;;;;;20.50;46.70;;;;;;1589018;73;716;-65
2024/04/01 02:55:09;;;;;;;;;;;20.50;46.70;;;;;;1591448;73;670;-67
2024/04/01 02:57:10;;;;;;;;;;;20.40;46.60;;;;;;1592545;73;1773;-71
2024/04/01 02:59:12;;;;;;;;;;;20.50;46.70;;;;;;1594683;73;744;-69
2024/04/01 03:01:14;;;;;;;;;;;20.50;46.60;;;;;;1589106;73;815;-68
2024/04/01 03:03:16;;;;;;;;;;;20.40;46.60;;;;;;1583889;73;719;-67
2024/04/01 03:05:18;;;;;;;;;;;20.40;46.50;;;;;;1595812;73;825;-68
2024/04/01 03:07:20;;;;;;;;;;;20.40;46.60;;;;;;1587113;73;1139;-67
2024/04/01 03:09:22;;;;;;;;;;;20.40;46.50;;;;;;1598614;73;1945;-67
2024/04/01 03:11:24;;;;;;;;;;;20.40;46.60;;;;;;1593309;73;1535;-67
2024/04/01 03:13:29;;;;;;;;;;;20.50;46.70;;;;;;1590941;73;733;-68
2024/04/01 03:15:31;;;;;;;;;;;20.50;46.60;;;;;;1590360;73;690;-67
2024/04/01 03:17:33;;;;;;;;;;;20.50;46.60;;;;;;1593139;73;1155;-67
2024/04/01 03:19:34;;;;;;;;;;;20.40;46.50;;;;;;1594082;73;765;-67
2024/04/01 03:21:36;;;;;;;;;;;20.40;46.50;;;;;;1592064;73;735;-67
2024/04/01 03:23:38;;;;;;;;;;;20.50;46.60;;;;;;1594809;73;604;-69
2024/04/01 03:25:40;;;;;;;;;;;20.40;46.40;;;;;;1587123;73;1554;-67
2024/04/01 03:27:42;;;;;;;;;;;20.40;46.50;;;;;;1587600;73;1027;-66
2024/04/01 03:29:44;;;;;;;;;;;20.50;46.60;;;;;;1587463;73;1922;-68
2024/04/01 03:31:46;;;;;;;;;;;20.40;46.50;;;;;;1590383;73;808;-69
2024/04/01 03:33:48;;;;;;;;;;;20.40;46.50;;;;;;1589770;73;671;-69
2024/04/01 03:35:52;;;;;;;;;;;20.50;46.60;;;;;;1589915;73;1104;-68
2024/04/01 03:37:53;;;;;;;;;;;20.40;46.50;;;;;;1592852;73;1434;-66
2024/04/01 03:39:56;;;;;;;;;;;20.50;46.60;;;;;;1593231;73;1501;-68
2024/04/01 03:41:58;;;;;;;;;;;20.40;46.50;;;;;;1603497;73;792;-67
2024/04/01 03:44:00;;;;;;;;;;;20.40;46.50;;;;;;1587569;73;768;-65
2024/04/01 03:46:02;;;;;;;;;;;20.40;46.50;;;;;;1585062;73;1116;-67
2024/04/01 03:48:05;;;;;;;;;;;20.40;46.50;;;;;;1582880;73;670;-68
2024/04/01 03:50:11;;;;;;;;;;;20.50;46.60;;;;;;1587545;73;1905;-68
2024/04/01 03:52:11;;;;;;;;;;;20.50;46.60;;;;;;1589193;73;1673;-69
2024/04/01 03:54:14;;;;;;;;;;;20.50;46.60;;;;;;1589744;73;1624;-68
2024/04/01 03:56:16;;;;;;;;;;;20.40;46.50;;;;;;1587635;73;1151;-70
2024/04/01 03:58:18;;;;;;;;;;;20.40;46.50;;;;;;1591589;73;735;-70
2024/04/01 04:00:20;;;;;;;;;;;20.80;46.70;;;;;;1598735;73;724;-69
2024/04/01 04:02:21;;;;;;;;;;;20.40;46.50;;;;;;1595804;73;763;-67
2024/04/01 04:04:23;;;;;;;;;;;20.50;46.60;;;;;;1588303;73;780;-68
2024/04/01 04:06:25;;;;;;;;;;;20.50;46.60;;;;;;1591187;73;1154;-69
2024/04/01 04:08:28;;;;;;;;;;;20.40;46.50;;;;;;1600298;73;1535;-68
2024/04/01 04:10:31;;;;;;;;;;;20.40;46.50;;;;;;1590548;73;1915;-68
2024/04/01 04:12:33;;;;;;;;;;;20.50;46.60;;;;;;1591833;73;713;-68
2024/04/01 04:14:35;;;;;;;;;;;20.40;46.50;;;;;;1597799;73;731;-68
2024/04/01 04:16:36;;;;;;;;;;;20.40;46.50;;;;;;1592606;73;1131;-67
2024/04/01 04:18:38;;;;;;;;;;;20.30;46.50;;;;;;1591625;73;686;-68
2024/04/01 04:20:40;;;;;;;;;;;20.40;46.50;;;;;;1585406;74;843;-68
2024/04/01 04:22:44;;;;;;;;;;;20.40;46.50;;;;;;1589064;73;1290;-67
2024/04/01 04:24:46;;;;;;;;;;;20.40;46.50;;;;;;1590579;73;1654;-68
2024/04/01 04:26:48;;;;;;;;;;;20.50;46.70;;;;;;1604462;73;1133;-68
2024/04/01 04:28:50;;;;;;;;;;;20.40;46.50;;;;;;1598741;73;796;-70
2024/04/01 04:30:52;;;;;;;;;;;20.50;46.70;;;;;;1592877;73;1948;-70
2024/04/01 04:32:54;;;;;;;;;;;20.40;46.50;;;;;;1590823;73;914;-68
2024/04/01 04:34:56;;;;;;;;;;;20.40;46.50;;;;;;1593174;73;809;-68
2024/04/01 04:36:59;;;;;;;;;;;20.40;46.50;;;;;;1599775;73;1552;-68
2024/04/01 04:39:00;;;;;;;;;;;20.40;46.60;;;;;;1598962;73;732;-67
2024/04/01 04:41:04;;;;;;;;;;;20.50;46.60;;;;;;1593187;73;801;-70
2024/04/01 04:43:06;;;;;;;;;;;20.40;46.50;;;;;;1591556;73;980;-68
2024/04/01 04:45:08;;;;;;;;;;;20.40;46.50;;;;;;1599817;73;590;-67
2024/04/01 04:47:09;;;;;;;;;;;20.40;46.50;;;;;;1590622;73;1136;-70
2024/04/01 04:49:11;;;;;;;;;;;20.40;46.50;;;;;;1592288;73;1923;-67
2024/04/01 04:51:13;;;;;;;;;;;20.40;46.50;;;;;;1591871;73;1571;-68
2024/04/01 04:53:15;;;;;;;;;;;20.40;46.50;;;;;;1587815;73;811;-68
2024/04/01 04:55:17;;;;;;;;;;;20.40;46.50;;;;;;1590480;73;726;-67
2024/04/01 04:57:19;;;;;;;;;;;20.50;46.60;;;;;;1598022;73;1139;-69
2024/04/01 04:59:21;;;;;;;;;;;20.40;46.50;;;;;;1589439;73;752;-68
2024/04/01 05:01:23;;;;;;;;;;;20.40;46.50;;;;;;1585102;73;681;-68
2024/04/01 05:03:25;;;;;;;;;;;20.40;46.50;;;;;;1588221;73;759;-67
2024/04/01 05:05:27;;;;;;;;;;;20.40;46.50;;;;;;1589779;73;803;-69
2024/04/01 05:07:29;;;;;;;;;;;20.50;46.50;;;;;;1597539;73;1131;-66
2024/04/01 05:09:30;;;;;;;;;;;20.50;46.50;;;;;;1596785;73;1929;-67
2024/04/01 05:11:32;;;;;;;;;;;20.40;46.50;;;;;;1586193;73;734;-67
2024/04/01 05:13:35;;;;;;;;;;;20.40;46.50;;;;;;1599816;73;807;-68
2024/04/01 05:15:37;;;;;;;;;;;20.50;46.60;;;;;;1589975;73;740;-68
2024/04/01 05:17:39;;;;;;;;;;;20.40;46.50;;;;;;1589308;73;1468;-68
2024/04/01 05:19:41;;;;;;;;;;;20.50;46.60;;;;;;1595364;73;771;-66
2024/04/01 05:21:43;;;;;;;;;;;20.40;46.50;;;;;;1595428;73;774;-69
2024/04/01 05:23:45;;;;;;;;;;;20.40;46.50;;;;;;1599503;73;713;-68
2024/04/01 05:25:47;;;;;;;;;;;20.40;46.50;;;;;;1591330;73;810;-66
2024/04/01 05:27:48;;;;;;;;;;;20.40;46.50;;;;;;1594853;73;1205;-71
2024/04/01 05:30:06;;;;;;;;;;;20.50;46.60;;;;;;1591221;73;1908;-71
2024/04/01 05:32:08;;;;;;;;;;;20.40;46.50;;;;;;1584481;73;1567;-68
2024/04/01 05:34:10;;;;;;;;;;;20.40;46.50;;;;;;1597665;73;784;-69
2024/04/01 05:36:12;;;;;;;;;;;20.50;46.50;;;;;;1588085;73;1152;-68
2024/04/01 05:38:15;;;;;;;;;;;20.50;46.50;;;;;;1583559;73;824;-70
2024/04/01 05:40:17;;;;;;;;;;;20.40;46.40;;;;;;1594156;73;764;-70
2024/04/01 05:42:19;;;;;;;;;;;20.40;46.40;;;;;;1591268;73;747;-69
2024/04/01 05:44:21;;;;;;;;;;;20.50;46.50;;;;;;1589586;73;769;-69
2024/04/01 05:46:23;;;;;;;;;;;20.40;46.40;;;;;;1590008;73;1574;-69
2024/04/01 05:48:25;;;;;;;;;;;20.50;46.50;;;;;;1593979;73;777;-69
2024/04/01 05:50:27;;;;;;;;;;;20.40;46.50;;;;;;1598060;73;1928;-69
2024/04/01 05:52:29;;;;;;;;;;;20.50;46.50;;;;;;1591430;73;669;-68
2024/04/01 05:54:31;;;;;;;;;;;20.50;46.50;;;;;;1591230;73;770;-69
2024/04/01 05:56:33;;;;;;;;;;;20.50;46.50;;;;;;1598458;73;1146;-69
2024/04/01 05:58:35;;;;;;;;;;;20.40;46.40;;;;;;1587169;73;684;-71
2024/04/01 06:00:37;;;;;;;;;;;20.50;46.50;;;;;;1590501;73;1546;-69
2024/04/01 06:02:39;;;;;;;;;;;20.50;46.50;;;;;;1592280;73;807;-68
2024/04/01 06:04:41;;;;;;;;;;;20.50;46.50;;;;;;1588651;73;763;-71
2024/04/01 06:06:43;;;;;;;;;;;20.40;46.50;;;;;;1585476;73;1128;-67
2024/04/01 06:08:45;;;;;;;;;;;20.40;46.40;;;;;;1589938;73;687;-68
2024/04/01 06:10:47;;;;;;;;;;;20.40;46.50;;;;;;1588310;73;1931;-69
2024/04/01 06:12:52;;;;;;;;;;;20.50;46.50;;;;;;1591584;73;714;-69
2024/04/01 06:14:53;;;;;;;;;;;20.40;46.50;;;;;;1586897;73;1756;-69
2024/04/01 06:16:55;;;;;;;;;;;20.40;46.50;;;;;;1588687;73;1159;-69
2024/04/01 06:18:57;;;;;;;;;;;20.50;46.60;;;;;;1585628;73;802;-70
2024/04/01 06:20:59;;;;;;;;;;;20.50;46.60;;;;;;1588860;73;671;-68
2024/04/01 06:23:01;;;;;;;;;;;20.50;46.60;;;;;;1587473;73;730;-68
2024/04/01 06:25:04;;;;;;;;;;;20.50;46.70;;;;;;1586909;73;719;-68
2024/04/01 06:27:06;;;;;;;;;;;20.50;46.70;;;;;;1588643;73;1205;-68
2024/04/01 06:29:08;;;;;;;;;;;20.50;46.60;;;;;;1587455;73;1573;-69
2024/04/01 06:31:10;;;;;;;;;;;20.50;46.60;;;;;;1589351;73;1941;-68
2024/04/01 06:33:12;;;;;;;;;;;20.50;46.70;;;;;;1590007;73;726;-70
2024/04/01 06:35:14;;;;;;;;;;;20.40;46.60;;;;;;1589645;73;731;-70
2024/04/01 06:37:16;;;;;;;;;;;20.50;46.70;;;;;;1587439;73;1151;-68
2024/04/01 06:39:18;;;;;;;;;;;20.50;46.70;;;;;;1591402;73;784;-68
2024/04/01 06:41:20;;;;;;;;;;;20.40;46.60;;;;;;1590047;73;677;-69
2024/04/01 06:43:22;;;;;;;;;;;20.50;46.70;;;;;;1589917;73;1540;-70
2024/04/01 06:45:24;;;;;;;;;;;20.50;46.70;;;;;;1587064;73;748;-70
2024/04/01 06:47:26;;;;;;;;;;;20.50;46.70;;;;;;1585990;73;1093;-69
2024/04/01 06:49:27;;;;;;;;;;;20.50;46.80;;;;;;1591346;73;665;-69
2024/04/01 06:51:30;;;;;;;;;;;20.50;46.70;;;;;;1598007;73;1959;-69
2024/04/01 06:53:32;;;;;;;;;;;20.40;46.70;;;;;;1589999;73;708;-69
2024/04/01 06:55:34;;;;;;;;;;;20.40;46.70;;;;;;1588219;73;838;-70
2024/04/01 06:57:36;;;;;;;;;;;20.50;46.80;;;;;;1584658;73;1553;-69
2024/04/01 06:59:38;;;;;;;;;;;20.50;46.80;;;;;;1587899;73;624;-72
2024/04/01 07:01:40;;;;;;;;;;;20.50;46.80;;;;;;1584001;73;697;-68
2024/04/01 07:03:41;;;;;;;;;;;20.50;46.80;;;;;;1587100;73;796;-69
2024/04/01 07:05:43;;;;;;;;;;;20.40;46.70;;;;;;1589952;73;887;-69
2024/04/01 07:07:45;;;;;;;;;;;20.40;46.70;;;;;;1586835;73;1111;-70
2024/04/01 07:09:47;;;;;;;;;;;20.50;46.80;;;;;;1588133;73;828;-69
2024/04/01 07:11:49;;;;;;;;;;;20.40;46.70;;;;;;1590061;73;1919;-67
2024/04/01 07:13:51;;;;;;;;;;;20.50;46.80;;;;;;1588215;73;671;-68
2024/04/01 07:15:53;;;;;;;;;;;20.50;46.80;;;;;;1586461;73;1177;-68
2024/04/01 07:17:55;;;;;;;;;;;20.50;46.80;;;;;;1586377;73;794;-68
2024/04/01 07:19:57;;;;;;;;;;;20.50;46.80;;;;;;1589387;73;598;-69
2024/04/01 07:21:59;;;;;;;;;;;20.50;46.80;;;;;;1587247;73;793;-68
2024/04/01 07:24:01;;;;;;;;;;;20.50;46.80;;;;;;1584107;73;684;-68
2024/04/01 07:26:03;;;;;;;;;;;20.50;46.80;;;;;;1590952;73;1575;-72
2024/04/01 07:28:05;;;;;;;;;;;20.50;46.80;;;;;;1585492;73;800;-70
2024/04/01 07:30:07;;;;;;;;;;;20.40;46.80;;;;;;1587994;73;730;-68
2024/04/01 07:32:09;;;;;;;;;;;20.50;46.90;;;;;;1587701;73;720;-69
2024/04/01 07:34:11;;;;;;;;;;;20.40;46.70;;;;;;1587385;73;728;-70
2024/04/01 07:36:13;;;;;;;;;;;20.40;46.80;;;;;;1587250;73;1137;-69
2024/04/01 07:38:15;;;;;;;;;;;20.40;46.80;;;;;;1585623;73;1606;-66
2024/04/01 07:40:17;;;;;;;;;;;20.40;46.80;;;;;;1588335;73;739;-67
2024/04/01 07:42:19;;;;;;;;;;;20.50;46.80;;;;;;1587118;73;817;-69
2024/04/01 07:44:20;;;;;;;;;;;20.40;46.80;;;;;;1585985;73;729;-68
2024/04/01 07:46:22;;;;;;;;;;;20.40;46.80;;;;;;1587539;73;1149;-71
2024/04/01 07:48:24;;;;;;;;;;;20.40;46.80;;;;;;1590986;73;768;-70
2024/04/01 07:50:26;;;;;;;;;;;20.40;46.80;;;;;;1588100;73;1935;-67
2024/04/01 07:52:28;;;;;;;;;;;20.50;46.90;;;;;;1587471;73;1547;-68
2024/04/01 07:54:30;;;;;;;;;;;20.40;46.80;;;;;;1588688;73;737;-66
2024/04/01 07:56:32;;;;;;;;;;;20.50;46.90;;;;;;1586117;73;1139;-69
2024/04/01 07:58:34;;;;;;;;;;;20.40;46.80;;;;;;1579446;73;776;-70
2024/04/01 08:00:38;;;;;;;;;;;20.40;46.80;;;;;;1590075;73;722;-70
2024/04/01 08:02:40;;;;;;;;;;;20.40;46.90;;;;;;1591729;73;757;-69
2024/04/01 08:04:42;;;;;;;;;;;20.40;46.90;;;;;;1591897;73;809;-72
2024/04/01 08:06:45;;;;;;;;;;;20.50;47.00;;;;;;1594599;73;1593;-72
2024/04/01 08:08:46;;;;;;;;;;;20.50;47.00;;;;;;1589883;73;660;-71
2024/04/01 08:10:48;;;;;;;;;;;20.50;47.10;;;;;;1596247;73;1942;-72
2024/04/01 08:12:50;;;;;;;;;;;20.50;47.10;;;;;;1586600;73;634;-72
2024/04/01 08:14:52;;;;;;;;;;;20.50;47.00;;;;;;1591845;73;796;-73
2024/04/01 08:16:54;;;;;;;;;;;20.50;47.00;;;;;;1590040;73;1164;-71
2024/04/01 08:18:56;;;;;;;;;;;20.50;47.00;;;;;;1593356;73;723;-73
2024/04/01 08:20:59;;;;;;;;;;;20.40;46.90;;;;;;1591548;73;1427;-70
2024/04/01 08:23:01;;;;;;;;;;;20.50;47.10;;;;;;1587944;73;715;-71
2024/04/01 08:25:03;;;;;;;;;;;20.50;47.00;;;;;;1587000;73;804;-74
2024/04/01 08:27:06;;;;;;;;;;;20.40;46.80;;;;;;1591880;73;1190;-69
2024/04/01 08:29:08;;;;;;;;;;;20.40;46.80;;;;;;1593609;73;614;-71
2024/04/01 08:31:10;;;;;;;;;;;20.50;47.00;;;;;;1596752;73;1927;-69
2024/04/01 08:33:12;;;;;;;;;;;20.50;47.30;;;;;;1590556;73;716;-69
2024/04/01 08:35:15;;;;;;;;;;;20.50;47.30;;;;;;1590835;73;1507;-69
2024/04/01 08:37:17;;;;;;;;;;;20.60;47.30;;;;;;1596948;73;1121;-69
2024/04/01 08:39:19;;;;;;;;;;;20.60;47.30;;;;;;1592715;73;941;-72
2024/04/01 08:41:38;;;;;;;;;;;20.50;47.40;;;;;;1583001;73;693;-69
2024/04/01 08:43:40;;;;;;;;;;;20.50;47.40;;;;;;1590281;73;1720;-71
2024/04/01 08:45:42;;;;;;;;;;;20.50;47.40;;;;;;1583059;73;712;-69
2024/04/01 08:47:44;;;;;;;;;;;20.50;47.40;;;;;;1587515;73;1127;-72
2024/04/01 08:49:48;;;;;;;;;;;20.50;47.40;;;;;;1593950;73;1613;-72
2024/04/01 08:51:50;;;;;;;;;;;20.60;47.60;;;;;;1587139;73;1921;-70
2024/04/01 08:53:53;;;;;;;;;;;20.60;47.60;;;;;;1589978;73;742;-70
2024/04/01 08:55:55;;;;;;;;;;;20.60;47.60;;;;;;1585517;73;1173;-72
2024/04/01 08:57:57;;;;;;;;;;;20.50;47.70;;;;;;1586589;73;705;-71
2024/04/01 08:59:59;;;;;;;;;;;20.60;47.70;;;;;;1586286;73;798;-75
2024/04/01 09:02:02;;;;;;;;;;;20.50;47.80;;;;;;1589668;73;741;-70
2024/04/01 09:04:04;;;;;;;;;;;20.60;47.80;;;;;;1596620;73;1512;-72
2024/04/01 09:06:05;;;;;;;;;;;20.60;47.90;;;;;;1588395;73;1208;-73
2024/04/01 09:08:07;;;;;;;;;;;20.60;47.90;;;;;;1586170;73;765;-70
2024/04/01 09:10:09;;;;;;;;;;;20.60;47.90;;;;;;1587535;73;849;-70
2024/04/01 09:12:11;;;;;;;;;;;20.60;47.90;;;;;;1589498;73;1934;-71
2024/04/01 09:14:13;;;;;;;;;;;20.60;48.00;;;;;;1595790;73;726;-74
2024/04/01 09:16:17;;;;;;;;;;;20.60;48.00;;;;;;1591362;73;1112;-72
2024/04/01 09:18:19;;;;;;;;;;;20.60;48.10;;;;;;1582080;73;1763;-71
2024/04/01 09:20:20;;;;;;;;;;;20.60;48.10;;;;;;1590819;73;590;-72
2024/04/01 09:22:22;;;;;;;;;;;20.50;48.10;;;;;;1589070;73;733;-69
2024/04/01 09:24:24;;;;;;;;;;;20.50;48.10;;;;;;1584310;73;665;-70
2024/04/01 09:26:32;;;;;;;;;;;20.60;48.10;;;;;;1600661;73;1187;-73
2024/04/01 09:28:34;;;;;;;;;;;20.60;48.10;;;;;;1591142;73;716;-70
2024/04/01 09:30:36;;;;;;;;;;;20.50;48.10;;;;;;1590068;73;735;-72
2024/04/01 09:32:38;;;;;;;;;;;20.60;48.20;;;;;;1590632;74;1922;-70
2024/04/01 09:34:40;;;;;;;;;;;20.60;48.20;;;;;;1585525;73;790;-70
2024/04/01 09:36:42;;;;;;;;;;;20.60;48.20;;;;;;1584395;73;1105;-69
2024/04/01 09:38:44;;;;;;;;;;;20.60;48.20;;;;;;1591833;73;690;-73
2024/04/01 09:40:49;;;;;;;;;;;20.60;48.20;;;;;;1587498;73;746;-70
2024/04/01 09:42:57;;;;;;;;;;;20.60;48.20;;;;;;1587577;73;797;-71
2024/04/01 09:44:55;;;;;;;;;;;20.50;48.30;;;;;;1594506;73;1575;-70
2024/04/01 09:46:57;;;;;;;;;;;20.50;48.20;;;;;;1592240;73;1161;-72
2024/04/01 09:48:59;;;;;;;;;;;20.50;48.20;;;;;;1587883;73;728;-73
2024/04/01 09:51:01;;;;;;;;;;;20.50;48.20;;;;;;1578798;73;1917;-72
2024/04/01 09:53:03;;;;;;;;;;;20.50;48.30;;;;;;1585142;73;719;-73
2024/04/01 09:55:08;;;;;;;;;;;20.60;48.30;;;;;;1583300;73;743;-69
2024/04/01 09:57:11;;;;;;;;;;;20.60;48.30;;;;;;1566061;74;1123;-71
2024/04/01 09:59:27;;;;;;;;;;;20.50;48.30;;;;;;1586787;73;1528;-70
2024/04/01 10:01:49;;;;;;;;;;;20.50;48.30;;;;;;1587679;73;1876;-71
2024/04/01 10:03:52;;;;;;;;;;;20.50;48.30;;;;;;1589509;73;745;-71
2024/04/01 10:06:12;;;;;;;;;;;20.50;48.30;;;;;;1591863;73;1154;-70
2024/04/01 10:08:34;;;;;;;;;;;20.60;48.40;;;;;;1577504;73;929;-69
2024/04/01 10:10:56;;;;;;;;;;;20.60;48.50;;;;;;1583770;73;687;-71
2024/04/01 10:13:16;;;;;;;;;;;20.60;48.40;;;;;;1596517;73;1940;-68
2024/04/01 10:15:22;;;;;;;;;;;20.60;48.40;;;;;;1592326;73;618;-68
2024/04/01 10:17:41;;;;;;;;;;;20.60;48.40;;;;;;1580235;73;1112;-69
2024/04/01 10:19:54;;;;;;;;;;;20.60;48.40;;;;;;1582756;73;1033;-68
2024/04/01 10:22:00;;;;;;;;;;;20.60;48.40;;;;;;1593414;73;892;-69
2024/04/01 10:24:03;;;;;;;;;;;20.60;48.40;;;;;;1597508;73;716;-68
2024/04/01 10:26:16;;;;;;;;;;;21.10;48.70;;;;;;1592854;73;1137;-70
2024/04/01 10:28:20;;;;;;;;;;;20.60;48.40;;;;;;1588017;73;1635;-69
2024/04/01 10:30:41;;;;;;;;;;;20.60;48.40;;;;;;1586246;73;1573;-70
2024/04/01 10:32:52;;;;;;;;;;;20.60;48.40;;;;;;1575336;73;1954;-68
2024/04/01 10:35:01;;;;;;;;;;;20.60;48.40;;;;;;1594211;73;1607;-68
2024/04/01 10:37:04;;;;;;;;;;;20.60;48.30;;;;;;1584466;73;1620;-69
2024/04/01 10:39:14;;;;;;;;;;;20.80;48.50;;;;;;1583437;73;706;-70
2024/04/01 10:41:34;;;;;;;;;;;20.60;48.30;;;;;;1588196;73;1684;-70
2024/04/01 10:43:53;;;;;;;;;;;20.60;48.30;;;;;;1582837;73;692;-69
2024/04/01 10:46:15;;;;;;;;;;;20.60;48.40;;;;;;1584067;73;1612;-72
2024/04/01 10:48:20;;;;;;;;;;;20.60;48.30;;;;;;1584621;73;771;-67
2024/04/01 10:50:27;;;;;;;;;;;20.60;48.30;;;;;;1593413;73;748;-66
2024/04/01 10:52:33;;;;;;;;;;;20.60;48.30;;;;;;1599490;73;1930;-69
2024/04/01 10:54:53;;;;;;;;;;;20.60;48.30;;;;;;1593393;73;1855;-72
2024/04/01 10:57:06;;;;;;;;;;;20.60;48.30;;;;;;1589432;73;1647;-70
2024/04/01 10:59:18;;;;;;;;;;;20.60;48.20;;;;;;1583065;73;1689;-69
2024/04/01 11:01:34;;;;;;;;;;;20.60;48.20;;;;;;1590908;73;800;-69
2024/04/01 11:03:37;;;;;;;;;;;20.60;48.20;;;;;;1587973;73;1991;-69
2024/04/01 11:05:50;;;;;;;;;;;20.60;48.30;;;;;;1598866;73;1999;-68
2024/04/01 11:07:53;;;;;;;;;;;20.60;48.10;;;;;;1592967;73;750;-69
2024/04/01 11:10:08;;;;;;;;;;;20.60;48.20;;;;;;1597116;73;1576;-69
2024/04/01 11:12:11;;;;;;;;;;;20.60;48.10;;;;;;1585581;73;1905;-65
2024/04/01 11:14:12;;;;;;;;;;;20.60;48.10;;;;;;1584540;73;1706;-69
2024/04/01 11:16:14;;;;;;;;;;;20.60;48.10;;;;;;1588967;73;1138;-68
2024/04/01 11:18:18;;;;;;;;;;;20.60;48.10;;;;;;1585724;73;749;-68
2024/04/01 11:20:27;;;;;;;;;;;20.60;48.10;;;;;;1588125;73;1816;-69
2024/04/01 11:22:48;;;;;;;;;;;20.60;48.20;;;;;;1595401;73;649;-69
2024/04/01 11:25:08;;;;;;;;;;;20.50;48.10;;;;;;1584040;73;1564;-71
2024/04/01 11:27:23;;;;;;;;;;;20.60;48.10;;;;;;1597197;73;1101;-70
2024/04/01 11:29:30;;;;;;;;;;;20.60;48.10;;;;;;1590363;73;1884;-69
2024/04/01 11:31:31;;;;;;;;;;;20.60;48.10;;;;;;1563739;75;1990;-68
2024/04/01 11:33:35;;;;;;;;;;;20.60;48.10;;;;;;1594701;73;721;-69
2024/04/01 11:35:43;;;;;;;;;;;20.60;48.00;;;;;;1591329;73;726;-69
2024/04/01 11:37:46;;;;;;;;;;;20.60;48.00;;;;;;1593448;73;1555;-69
2024/04/01 11:39:49;;;;;;;;;;;20.60;48.00;;;;;;1590127;73;813;-67
2024/04/01 11:41:51;;;;;;;;;;;20.60;48.00;;;;;;1591129;73;779;-71
2024/04/01 11:43:53;;;;;;;;;;;20.60;48.00;;;;;;1586366;73;754;-70
2024/04/01 11:45:55;;;;;;;;;;;20.70;48.00;;;;;;1592035;73;1156;-70
2024/04/01 11:47:57;;;;;;;;;;;20.60;47.90;;;;;;1586687;73;697;-68
2024/04/01 11:49:58;;;;;;;;;;;20.60;48.00;;;;;;1578242;73;742;-68
2024/04/01 11:52:00;;;;;;;;;;;20.60;47.90;;;;;;1592404;73;1965;-67
2024/04/01 11:54:06;;;;;;;;;;;20.60;47.90;;;;;;1569213;74;1275;-68
2024/04/01 11:56:06;;;;;;;;;;;20.60;47.80;;;;;;1582752;73;1154;-68
2024/04/01 11:58:09;;;;;;;;;;;20.60;47.80;;;;;;1587151;73;694;-73
2024/04/01 12:00:11;;;;;;;;;;;20.60;47.80;;;;;;1586633;73;810;-65
2024/04/01 12:02:13;;;;;;;;;;;20.60;47.50;;;;;;1581229;73;693;-69
2024/04/01 12:04:18;;;;;;;;;;;20.60;47.50;;;;;;1597962;73;804;-66
2024/04/01 12:06:20;;;;;;;;;;;20.60;47.60;;;;;;1596660;73;1319;-69
2024/04/01 12:08:24;;;;;;;;;;;20.60;47.70;;;;;;1601591;73;685;-72
2024/04/01 12:10:27;;;;;;;;;;;20.60;47.60;;;;;;1599900;73;777;-70
2024/04/01 12:12:29;;;;;;;;;;;20.60;47.60;;;;;;1592227;73;1931;-72
2024/04/01 12:14:31;;;;;;;;;;;20.60;47.60;;;;;;1583613;73;728;-71